sensor_id;sensor_type;location;lat;lon;timestamp;P1;durP1;ratioP1;P2;durP2;ratioP2
67092;SDS011;54011;50.772;7.730;2022-10-16T00:00:29;7.97;;;3.50;;
67092;SDS011;54011;50.772;7.730;2022-10-16T00:02:55;6.00;;;3.30;;
67092;SDS011;54011;50.772;7.730;2022-10-16T00:05:21;5.55;;;3.25;;
67092;SDS011;54011;50.772;7.730;2022-10-16T00:07:46;6.63;;;3.15;;
67092;SDS011;54011;50.772;7.730;2022-10-16T00:10:12;4.80;;;2.83;;
67092;SDS011;54011;50.772;7.730;2022-10-16T00:12:38;6.47;;;3.30;;
67092;SDS011;54011;50.772;7.730;2022-10-16T00:15:03;5.25;;;3.00;;
67092;SDS011;54011;50.772;7.730;2022-10-16T00:17:29;7.80;;;3.78;;
67092;SDS011;54011;50.772;7.730;2022-10-16T00:19:55;7.32;;;3.17;;
67092;SDS011;54011;50.772;7.730;2022-10-16T00:22:22;6.50;;;3.33;;
67092;SDS011;54011;50.772;7.730;2022-10-16T00:24:47;5.38;;;3.35;;
67092;SDS011;54011;50.772;7.730;2022-10-16T00:27:13;4.97;;;3.15;;
67092;SDS011;54011;50.772;7.730;2022-10-16T00:29:38;4.60;;;3.00;;
67092;SDS011;54011;50.772;7.730;2022-10-16T00:32:04;6.38;;;2.83;;
67092;SDS011;54011;50.772;7.730;2022-10-16T00:34:29;8.10;;;3.10;;
67092;SDS011;54011;50.772;7.730;2022-10-16T00:36:55;5.00;;;2.75;;
67092;SDS011;54011;50.772;7.730;2022-10-16T00:39:20;4.20;;;2.58;;
67092;SDS011;54011;50.772;7.730;2022-10-16T00:41:47;5.68;;;2.90;;
67092;SDS011;54011;50.772;7.730;2022-10-16T00:47:13;5.50;;;2.60;;
67092;SDS011;54011;50.772;7.730;2022-10-16T00:49:43;5.15;;;2.72;;
67092;SDS011;54011;50.772;7.730;2022-10-16T00:52:10;4.45;;;2.58;;
67092;SDS011;54011;50.772;7.730;2022-10-16T00:54:35;6.82;;;2.67;;
67092;SDS011;54011;50.772;7.730;2022-10-16T00:57:02;6.53;;;2.80;;
67092;SDS011;54011;50.772;7.730;2022-10-16T00:59:33;5.10;;;2.47;;
67092;SDS011;54011;50.772;7.730;2022-10-16T01:02:00;7.75;;;2.40;;
67092;SDS011;54011;50.772;7.730;2022-10-16T01:04:27;6.70;;;2.42;;
67092;SDS011;54011;50.772;7.730;2022-10-16T01:12:38;9.18;;;2.83;;
67092;SDS011;54011;50.772;7.730;2022-10-16T01:15:16;5.38;;;2.90;;
67092;SDS011;54011;50.772;7.730;2022-10-16T01:17:45;4.60;;;2.88;;
67092;SDS011;54011;50.772;7.730;2022-10-16T01:20:47;5.32;;;2.80;;
67092;SDS011;54011;50.772;7.730;2022-10-16T01:29:15;6.30;;;3.33;;
67092;SDS011;54011;50.772;7.730;2022-10-16T01:32:05;6.68;;;3.42;;
67092;SDS011;54011;50.772;7.730;2022-10-16T01:34:38;6.88;;;3.97;;
67092;SDS011;54011;50.772;7.730;2022-10-16T01:37:11;8.40;;;3.40;;
67092;SDS011;54011;50.772;7.730;2022-10-16T01:39:45;5.97;;;3.92;;
67092;SDS011;54011;50.772;7.730;2022-10-16T01:42:16;14.60;;;4.00;;
67092;SDS011;54011;50.772;7.730;2022-10-16T01:44:49;8.68;;;4.25;;
67092;SDS011;54011;50.772;7.730;2022-10-16T01:47:17;6.20;;;4.15;;
67092;SDS011;54011;50.772;7.730;2022-10-16T01:49:47;7.40;;;3.92;;
67092;SDS011;54011;50.772;7.730;2022-10-16T01:52:15;5.75;;;3.78;;
67092;SDS011;54011;50.772;7.730;2022-10-16T01:54:43;11.18;;;5.10;;
67092;SDS011;54011;50.772;7.730;2022-10-16T01:57:12;8.75;;;3.80;;
67092;SDS011;54011;50.772;7.730;2022-10-16T01:59:42;7.47;;;3.75;;
67092;SDS011;54011;50.772;7.730;2022-10-16T02:02:12;8.05;;;3.97;;
67092;SDS011;54011;50.772;7.730;2022-10-16T02:04:42;5.18;;;2.10;;
67092;SDS011;54011;50.772;7.730;2022-10-16T02:07:11;7.18;;;3.17;;
67092;SDS011;54011;50.772;7.730;2022-10-16T02:09:37;4.80;;;2.72;;
67092;SDS011;54011;50.772;7.730;2022-10-16T02:12:06;7.40;;;3.35;;
67092;SDS011;54011;50.772;7.730;2022-10-16T02:14:37;7.15;;;3.92;;
67092;SDS011;54011;50.772;7.730;2022-10-16T02:17:10;5.88;;;3.83;;
67092;SDS011;54011;50.772;7.730;2022-10-16T02:19:38;9.88;;;4.25;;
67092;SDS011;54011;50.772;7.730;2022-10-16T02:22:04;5.90;;;4.30;;
67092;SDS011;54011;50.772;7.730;2022-10-16T02:24:51;8.05;;;4.10;;
67092;SDS011;54011;50.772;7.730;2022-10-16T02:30:19;7.07;;;4.10;;
67092;SDS011;54011;50.772;7.730;2022-10-16T02:32:50;10.05;;;4.78;;
67092;SDS011;54011;50.772;7.730;2022-10-16T02:35:18;9.52;;;4.60;;
67092;SDS011;54011;50.772;7.730;2022-10-16T02:37:46;10.85;;;5.05;;
67092;SDS011;54011;50.772;7.730;2022-10-16T02:40:13;7.80;;;4.10;;
67092;SDS011;54011;50.772;7.730;2022-10-16T02:42:40;11.23;;;3.83;;
67092;SDS011;54011;50.772;7.730;2022-10-16T02:45:07;9.95;;;3.75;;
67092;SDS011;54011;50.772;7.730;2022-10-16T02:47:34;5.75;;;3.47;;
67092;SDS011;54011;50.772;7.730;2022-10-16T02:50:00;6.53;;;3.45;;
67092;SDS011;54011;50.772;7.730;2022-10-16T02:52:25;12.30;;;3.75;;
67092;SDS011;54011;50.772;7.730;2022-10-16T02:54:51;6.00;;;2.53;;
67092;SDS011;54011;50.772;7.730;2022-10-16T02:57:16;9.52;;;2.70;;
67092;SDS011;54011;50.772;7.730;2022-10-16T02:59:43;11.20;;;3.25;;
67092;SDS011;54011;50.772;7.730;2022-10-16T03:02:09;5.18;;;3.20;;
67092;SDS011;54011;50.772;7.730;2022-10-16T03:04:34;9.05;;;3.92;;
67092;SDS011;54011;50.772;7.730;2022-10-16T03:07:00;8.23;;;3.05;;
67092;SDS011;54011;50.772;7.730;2022-10-16T03:09:25;6.55;;;3.30;;
67092;SDS011;54011;50.772;7.730;2022-10-16T03:11:51;5.93;;;2.78;;
67092;SDS011;54011;50.772;7.730;2022-10-16T03:14:17;10.77;;;2.58;;
67092;SDS011;54011;50.772;7.730;2022-10-16T03:16:42;5.05;;;2.65;;
67092;SDS011;54011;50.772;7.730;2022-10-16T03:19:08;5.38;;;3.10;;
67092;SDS011;54011;50.772;7.730;2022-10-16T03:21:33;7.65;;;2.97;;
67092;SDS011;54011;50.772;7.730;2022-10-16T03:23:59;4.90;;;3.20;;
67092;SDS011;54011;50.772;7.730;2022-10-16T03:26:24;6.95;;;3.35;;
67092;SDS011;54011;50.772;7.730;2022-10-16T03:28:50;6.03;;;3.45;;
67092;SDS011;54011;50.772;7.730;2022-10-16T03:31:15;10.40;;;3.00;;
67092;SDS011;54011;50.772;7.730;2022-10-16T03:33:41;5.85;;;2.55;;
67092;SDS011;54011;50.772;7.730;2022-10-16T03:36:06;4.95;;;2.55;;
67092;SDS011;54011;50.772;7.730;2022-10-16T03:38:31;10.38;;;2.70;;
67092;SDS011;54011;50.772;7.730;2022-10-16T03:40:57;7.47;;;3.00;;
67092;SDS011;54011;50.772;7.730;2022-10-16T03:43:22;6.43;;;2.35;;
67092;SDS011;54011;50.772;7.730;2022-10-16T03:45:49;5.63;;;2.90;;
67092;SDS011;54011;50.772;7.730;2022-10-16T03:48:16;5.72;;;2.90;;
67092;SDS011;54011;50.772;7.730;2022-10-16T03:50:42;4.25;;;2.35;;
67092;SDS011;54011;50.772;7.730;2022-10-16T03:53:08;7.43;;;2.47;;
67092;SDS011;54011;50.772;7.730;2022-10-16T03:55:34;4.88;;;2.40;;
67092;SDS011;54011;50.772;7.730;2022-10-16T03:57:59;5.35;;;2.30;;
67092;SDS011;54011;50.772;7.730;2022-10-16T04:00:25;5.85;;;2.55;;
67092;SDS011;54011;50.772;7.730;2022-10-16T04:02:51;5.47;;;2.70;;
67092;SDS011;54011;50.772;7.730;2022-10-16T04:05:16;5.90;;;2.90;;
67092;SDS011;54011;50.772;7.730;2022-10-16T04:07:42;6.05;;;2.70;;
67092;SDS011;54011;50.772;7.730;2022-10-16T04:10:07;5.40;;;2.42;;
67092;SDS011;54011;50.772;7.730;2022-10-16T04:12:33;6.50;;;2.25;;
67092;SDS011;54011;50.772;7.730;2022-10-16T04:14:58;4.85;;;2.17;;
67092;SDS011;54011;50.772;7.730;2022-10-16T04:17:24;4.13;;;1.50;;
67092;SDS011;54011;50.772;7.730;2022-10-16T04:19:49;3.97;;;2.03;;
67092;SDS011;54011;50.772;7.730;2022-10-16T04:22:15;4.72;;;2.30;;
67092;SDS011;54011;50.772;7.730;2022-10-16T04:24:40;5.38;;;1.92;;
67092;SDS011;54011;50.772;7.730;2022-10-16T04:27:06;8.25;;;2.25;;
67092;SDS011;54011;50.772;7.730;2022-10-16T04:29:31;6.15;;;2.30;;
67092;SDS011;54011;50.772;7.730;2022-10-16T04:31:56;4.68;;;2.10;;
67092;SDS011;54011;50.772;7.730;2022-10-16T04:34:22;10.15;;;2.75;;
67092;SDS011;54011;50.772;7.730;2022-10-16T04:36:48;6.22;;;2.78;;
67092;SDS011;54011;50.772;7.730;2022-10-16T04:39:16;5.97;;;2.45;;
67092;SDS011;54011;50.772;7.730;2022-10-16T04:41:42;5.93;;;2.33;;
67092;SDS011;54011;50.772;7.730;2022-10-16T04:44:07;5.05;;;2.17;;
67092;SDS011;54011;50.772;7.730;2022-10-16T04:46:33;7.07;;;2.60;;
67092;SDS011;54011;50.772;7.730;2022-10-16T04:48:59;5.90;;;2.38;;
67092;SDS011;54011;50.772;7.730;2022-10-16T04:51:24;8.65;;;2.60;;
67092;SDS011;54011;50.772;7.730;2022-10-16T04:53:50;6.32;;;2.50;;
67092;SDS011;54011;50.772;7.730;2022-10-16T04:56:16;4.45;;;2.38;;
67092;SDS011;54011;50.772;7.730;2022-10-16T04:58:41;3.85;;;2.20;;
67092;SDS011;54011;50.772;7.730;2022-10-16T05:01:07;3.70;;;2.15;;
67092;SDS011;54011;50.772;7.730;2022-10-16T05:03:32;4.25;;;2.17;;
67092;SDS011;54011;50.772;7.730;2022-10-16T05:05:58;6.50;;;2.22;;
67092;SDS011;54011;50.772;7.730;2022-10-16T05:08:23;3.50;;;2.10;;
67092;SDS011;54011;50.772;7.730;2022-10-16T05:10:49;4.28;;;1.83;;
67092;SDS011;54011;50.772;7.730;2022-10-16T05:13:14;5.03;;;2.17;;
67092;SDS011;54011;50.772;7.730;2022-10-16T05:15:40;3.85;;;2.00;;
67092;SDS011;54011;50.772;7.730;2022-10-16T05:18:05;4.22;;;2.00;;
67092;SDS011;54011;50.772;7.730;2022-10-16T05:20:31;4.13;;;1.90;;
67092;SDS011;54011;50.772;7.730;2022-10-16T05:22:56;4.13;;;2.17;;
67092;SDS011;54011;50.772;7.730;2022-10-16T05:25:22;6.55;;;2.03;;
67092;SDS011;54011;50.772;7.730;2022-10-16T05:27:48;8.10;;;2.10;;
67092;SDS011;54011;50.772;7.730;2022-10-16T05:30:14;5.22;;;2.00;;
67092;SDS011;54011;50.772;7.730;2022-10-16T05:32:40;3.70;;;1.70;;
67092;SDS011;54011;50.772;7.730;2022-10-16T05:35:06;4.22;;;1.23;;
67092;SDS011;54011;50.772;7.730;2022-10-16T05:37:32;8.02;;;1.55;;
67092;SDS011;54011;50.772;7.730;2022-10-16T05:39:57;5.03;;;1.60;;
67092;SDS011;54011;50.772;7.730;2022-10-16T05:42:23;3.45;;;1.60;;
67092;SDS011;54011;50.772;7.730;2022-10-16T05:44:48;4.45;;;1.40;;
67092;SDS011;54011;50.772;7.730;2022-10-16T05:47:14;3.10;;;1.23;;
67092;SDS011;54011;50.772;7.730;2022-10-16T05:49:39;5.95;;;1.35;;
67092;SDS011;54011;50.772;7.730;2022-10-16T05:52:05;4.13;;;1.30;;
67092;SDS011;54011;50.772;7.730;2022-10-16T05:54:31;5.10;;;1.60;;
67092;SDS011;54011;50.772;7.730;2022-10-16T05:56:56;12.07;;;1.42;;
67092;SDS011;54011;50.772;7.730;2022-10-16T05:59:22;6.35;;;1.60;;
67092;SDS011;54011;50.772;7.730;2022-10-16T06:01:48;3.28;;;1.10;;
67092;SDS011;54011;50.772;7.730;2022-10-16T06:04:13;2.55;;;1.02;;
67092;SDS011;54011;50.772;7.730;2022-10-16T06:06:39;2.60;;;1.10;;
67092;SDS011;54011;50.772;7.730;2022-10-16T06:09:04;3.30;;;1.00;;
67092;SDS011;54011;50.772;7.730;2022-10-16T06:11:30;4.00;;;1.30;;
67092;SDS011;54011;50.772;7.730;2022-10-16T06:13:58;3.95;;;1.20;;
67092;SDS011;54011;50.772;7.730;2022-10-16T06:16:27;6.25;;;1.05;;
67092;SDS011;54011;50.772;7.730;2022-10-16T06:18:53;3.33;;;0.90;;
67092;SDS011;54011;50.772;7.730;2022-10-16T06:21:20;4.10;;;1.13;;
67092;SDS011;54011;50.772;7.730;2022-10-16T06:23:49;2.38;;;0.82;;
67092;SDS011;54011;50.772;7.730;2022-10-16T06:26:16;3.85;;;1.10;;
67092;SDS011;54011;50.772;7.730;2022-10-16T06:28:44;3.85;;;1.08;;
67092;SDS011;54011;50.772;7.730;2022-10-16T06:31:10;4.40;;;1.52;;
67092;SDS011;54011;50.772;7.730;2022-10-16T06:33:37;2.28;;;0.98;;
67092;SDS011;54011;50.772;7.730;2022-10-16T06:36:04;3.28;;;0.90;;
67092;SDS011;54011;50.772;7.730;2022-10-16T06:38:30;4.35;;;1.02;;
67092;SDS011;54011;50.772;7.730;2022-10-16T06:40:57;3.47;;;0.80;;
67092;SDS011;54011;50.772;7.730;2022-10-16T06:43:22;4.65;;;0.98;;
67092;SDS011;54011;50.772;7.730;2022-10-16T06:45:54;3.17;;;0.90;;
67092;SDS011;54011;50.772;7.730;2022-10-16T06:48:21;2.90;;;0.90;;
67092;SDS011;54011;50.772;7.730;2022-10-16T06:50:57;2.83;;;0.85;;
67092;SDS011;54011;50.772;7.730;2022-10-16T06:53:28;4.32;;;1.00;;
67092;SDS011;54011;50.772;7.730;2022-10-16T06:55:55;4.60;;;1.00;;
67092;SDS011;54011;50.772;7.730;2022-10-16T06:58:21;3.28;;;0.90;;
67092;SDS011;54011;50.772;7.730;2022-10-16T07:00:47;2.10;;;0.90;;
67092;SDS011;54011;50.772;7.730;2022-10-16T07:03:13;1.70;;;0.80;;
67092;SDS011;54011;50.772;7.730;2022-10-16T07:05:39;1.77;;;0.80;;
67092;SDS011;54011;50.772;7.730;2022-10-16T07:08:08;2.50;;;0.95;;
67092;SDS011;54011;50.772;7.730;2022-10-16T07:10:34;2.15;;;0.90;;
67092;SDS011;54011;50.772;7.730;2022-10-16T07:13:00;2.53;;;1.00;;
67092;SDS011;54011;50.772;7.730;2022-10-16T07:15:28;3.85;;;1.00;;
67092;SDS011;54011;50.772;7.730;2022-10-16T07:17:54;3.22;;;1.00;;
67092;SDS011;54011;50.772;7.730;2022-10-16T07:20:19;3.85;;;0.90;;
67092;SDS011;54011;50.772;7.730;2022-10-16T07:22:45;3.50;;;1.00;;
67092;SDS011;54011;50.772;7.730;2022-10-16T07:25:11;3.42;;;1.00;;
67092;SDS011;54011;50.772;7.730;2022-10-16T07:27:37;5.15;;;1.10;;
67092;SDS011;54011;50.772;7.730;2022-10-16T07:30:02;6.28;;;1.00;;
67092;SDS011;54011;50.772;7.730;2022-10-16T07:32:29;2.38;;;0.98;;
67092;SDS011;54011;50.772;7.730;2022-10-16T07:34:54;5.55;;;1.00;;
67092;SDS011;54011;50.772;7.730;2022-10-16T07:37:20;2.42;;;0.90;;
67092;SDS011;54011;50.772;7.730;2022-10-16T07:39:47;6.32;;;1.00;;
67092;SDS011;54011;50.772;7.730;2022-10-16T07:42:13;2.95;;;0.80;;
67092;SDS011;54011;50.772;7.730;2022-10-16T07:44:38;3.40;;;1.08;;
67092;SDS011;54011;50.772;7.730;2022-10-16T07:47:05;5.38;;;1.05;;
67092;SDS011;54011;50.772;7.730;2022-10-16T07:49:30;2.50;;;1.00;;
67092;SDS011;54011;50.772;7.730;2022-10-16T07:51:56;3.67;;;0.90;;
67092;SDS011;54011;50.772;7.730;2022-10-16T07:54:21;2.65;;;1.00;;
67092;SDS011;54011;50.772;7.730;2022-10-16T07:56:47;2.70;;;0.90;;
67092;SDS011;54011;50.772;7.730;2022-10-16T07:59:12;4.38;;;1.10;;
67092;SDS011;54011;50.772;7.730;2022-10-16T08:01:38;3.63;;;0.90;;
67092;SDS011;54011;50.772;7.730;2022-10-16T08:04:03;2.05;;;0.85;;
67092;SDS011;54011;50.772;7.730;2022-10-16T08:06:30;4.20;;;0.90;;
67092;SDS011;54011;50.772;7.730;2022-10-16T08:09:00;3.28;;;0.90;;
67092;SDS011;54011;50.772;7.730;2022-10-16T08:11:26;2.38;;;0.80;;
67092;SDS011;54011;50.772;7.730;2022-10-16T08:13:51;2.17;;;0.80;;
67092;SDS011;54011;50.772;7.730;2022-10-16T08:16:17;4.25;;;1.00;;
67092;SDS011;54011;50.772;7.730;2022-10-16T08:18:43;2.60;;;0.88;;
67092;SDS011;54011;50.772;7.730;2022-10-16T08:21:12;5.45;;;0.95;;
67092;SDS011;54011;50.772;7.730;2022-10-16T08:23:40;2.63;;;0.90;;
67092;SDS011;54011;50.772;7.730;2022-10-16T08:26:06;7.93;;;1.45;;
67092;SDS011;54011;50.772;7.730;2022-10-16T08:28:32;2.45;;;0.90;;
67092;SDS011;54011;50.772;7.730;2022-10-16T08:31:11;5.97;;;1.00;;
67092;SDS011;54011;50.772;7.730;2022-10-16T08:33:39;4.05;;;0.90;;
67092;SDS011;54011;50.772;7.730;2022-10-16T08:36:06;4.47;;;0.80;;
67092;SDS011;54011;50.772;7.730;2022-10-16T08:38:33;1.98;;;0.73;;
67092;SDS011;54011;50.772;7.730;2022-10-16T08:49:19;4.38;;;0.90;;
67092;SDS011;54011;50.772;7.730;2022-10-16T08:51:45;3.75;;;0.70;;
67092;SDS011;54011;50.772;7.730;2022-10-16T08:54:22;2.47;;;0.90;;
67092;SDS011;54011;50.772;7.730;2022-10-16T08:56:56;3.05;;;0.90;;
67092;SDS011;54011;50.772;7.730;2022-10-16T08:59:26;3.15;;;0.90;;
67092;SDS011;54011;50.772;7.730;2022-10-16T09:01:51;1.80;;;0.80;;
67092;SDS011;54011;50.772;7.730;2022-10-16T09:06:46;3.28;;;0.80;;
67092;SDS011;54011;50.772;7.730;2022-10-16T09:11:57;3.35;;;0.90;;
67092;SDS011;54011;50.772;7.730;2022-10-16T09:25:50;5.88;;;1.10;;
67092;SDS011;54011;50.772;7.730;2022-10-16T09:28:17;2.22;;;0.90;;
67092;SDS011;54011;50.772;7.730;2022-10-16T09:30:43;3.85;;;0.90;;
67092;SDS011;54011;50.772;7.730;2022-10-16T09:33:10;2.85;;;0.80;;
67092;SDS011;54011;50.772;7.730;2022-10-16T09:38:03;3.17;;;1.08;;
67092;SDS011;54011;50.772;7.730;2022-10-16T09:40:30;1.52;;;0.90;;
67092;SDS011;54011;50.772;7.730;2022-10-16T09:43:16;2.63;;;0.98;;
67092;SDS011;54011;50.772;7.730;2022-10-16T09:45:54;3.53;;;0.80;;
67092;SDS011;54011;50.772;7.730;2022-10-16T09:48:21;1.95;;;0.80;;
67092;SDS011;54011;50.772;7.730;2022-10-16T09:50:57;2.38;;;0.95;;
67092;SDS011;54011;50.772;7.730;2022-10-16T09:53:24;2.75;;;0.73;;
67092;SDS011;54011;50.772;7.730;2022-10-16T09:56:02;2.08;;;0.80;;
67092;SDS011;54011;50.772;7.730;2022-10-16T09:58:30;4.05;;;0.80;;
67092;SDS011;54011;50.772;7.730;2022-10-16T10:00:58;1.90;;;0.90;;
67092;SDS011;54011;50.772;7.730;2022-10-16T10:05:54;2.33;;;0.80;;
67092;SDS011;54011;50.772;7.730;2022-10-16T10:08:22;2.25;;;0.70;;
67092;SDS011;54011;50.772;7.730;2022-10-16T10:10:50;1.95;;;0.85;;
67092;SDS011;54011;50.772;7.730;2022-10-16T10:13:20;3.97;;;0.80;;
67092;SDS011;54011;50.772;7.730;2022-10-16T10:15:47;3.35;;;0.90;;
67092;SDS011;54011;50.772;7.730;2022-10-16T10:18:20;2.53;;;1.00;;
67092;SDS011;54011;50.772;7.730;2022-10-16T10:20:58;2.53;;;0.95;;
67092;SDS011;54011;50.772;7.730;2022-10-16T10:23:25;3.03;;;0.90;;
67092;SDS011;54011;50.772;7.730;2022-10-16T10:36:45;1.23;;;0.60;;
67092;SDS011;54011;50.772;7.730;2022-10-16T10:39:27;2.47;;;0.90;;
67092;SDS011;54011;50.772;7.730;2022-10-16T10:42:22;6.10;;;0.93;;
67092;SDS011;54011;50.772;7.730;2022-10-16T10:51:08;2.05;;;0.88;;
67092;SDS011;54011;50.772;7.730;2022-10-16T10:53:47;1.75;;;0.68;;
67092;SDS011;54011;50.772;7.730;2022-10-16T11:01:42;2.05;;;0.80;;
67092;SDS011;54011;50.772;7.730;2022-10-16T11:06:57;2.58;;;0.70;;
67092;SDS011;54011;50.772;7.730;2022-10-16T11:09:37;4.28;;;0.90;;
67092;SDS011;54011;50.772;7.730;2022-10-16T11:17:25;2.50;;;0.80;;
67092;SDS011;54011;50.772;7.730;2022-10-16T11:20:00;7.57;;;0.75;;
67092;SDS011;54011;50.772;7.730;2022-10-16T11:22:47;3.22;;;0.57;;
67092;SDS011;54011;50.772;7.730;2022-10-16T11:28:14;1.98;;;0.70;;
67092;SDS011;54011;50.772;7.730;2022-10-16T11:30:56;4.30;;;0.80;;
67092;SDS011;54011;50.772;7.730;2022-10-16T11:33:30;1.85;;;0.63;;
67092;SDS011;54011;50.772;7.730;2022-10-16T11:41:34;1.98;;;0.70;;
67092;SDS011;54011;50.772;7.730;2022-10-16T11:49:21;2.13;;;0.70;;
67092;SDS011;54011;50.772;7.730;2022-10-16T11:57:18;4.00;;;0.70;;
67092;SDS011;54011;50.772;7.730;2022-10-16T11:59:50;1.63;;;0.52;;
67092;SDS011;54011;50.772;7.730;2022-10-16T12:05:11;2.70;;;0.70;;
67092;SDS011;54011;50.772;7.730;2022-10-16T12:08:02;2.80;;;0.60;;
67092;SDS011;54011;50.772;7.730;2022-10-16T12:10:34;3.83;;;0.70;;
67092;SDS011;54011;50.772;7.730;2022-10-16T12:16:03;2.40;;;0.63;;
67092;SDS011;54011;50.772;7.730;2022-10-16T12:18:46;2.13;;;0.70;;
67092;SDS011;54011;50.772;7.730;2022-10-16T12:21:13;2.20;;;0.60;;
67092;SDS011;54011;50.772;7.730;2022-10-16T12:23:54;2.88;;;0.60;;
67092;SDS011;54011;50.772;7.730;2022-10-16T12:28:54;3.15;;;0.70;;
67092;SDS011;54011;50.772;7.730;2022-10-16T12:31:21;1.55;;;0.60;;
67092;SDS011;54011;50.772;7.730;2022-10-16T12:34:01;2.55;;;0.70;;
67092;SDS011;54011;50.772;7.730;2022-10-16T12:38:58;2.42;;;0.60;;
67092;SDS011;54011;50.772;7.730;2022-10-16T12:43:50;2.95;;;0.60;;
67092;SDS011;54011;50.772;7.730;2022-10-16T12:48:42;3.67;;;0.70;;
67092;SDS011;54011;50.772;7.730;2022-10-16T12:51:21;2.63;;;0.80;;
67092;SDS011;54011;50.772;7.730;2022-10-16T12:53:59;1.40;;;0.63;;
67092;SDS011;54011;50.772;7.730;2022-10-16T13:13:52;3.08;;;0.60;;
67092;SDS011;54011;50.772;7.730;2022-10-16T13:19:02;1.75;;;0.70;;
67092;SDS011;54011;50.772;7.730;2022-10-16T13:21:49;1.33;;;0.60;;
67092;SDS011;54011;50.772;7.730;2022-10-16T13:29:40;2.00;;;0.50;;
67092;SDS011;54011;50.772;7.730;2022-10-16T13:32:07;3.05;;;0.70;;
67092;SDS011;54011;50.772;7.730;2022-10-16T13:34:44;3.17;;;0.80;;
67092;SDS011;54011;50.772;7.730;2022-10-16T13:37:21;2.47;;;0.50;;
67092;SDS011;54011;50.772;7.730;2022-10-16T13:39:50;5.65;;;0.90;;
67092;SDS011;54011;50.772;7.730;2022-10-16T13:42:24;1.70;;;0.65;;
67092;SDS011;54011;50.772;7.730;2022-10-16T13:44:51;5.75;;;0.63;;
67092;SDS011;54011;50.772;7.730;2022-10-16T13:47:19;2.38;;;0.60;;
67092;SDS011;54011;50.772;7.730;2022-10-16T13:52:38;2.60;;;0.60;;
67092;SDS011;54011;50.772;7.730;2022-10-16T13:55:10;7.15;;;0.80;;
67092;SDS011;54011;50.772;7.730;2022-10-16T13:57:40;8.52;;;0.80;;
67092;SDS011;54011;50.772;7.730;2022-10-16T14:00:20;2.08;;;0.60;;
67092;SDS011;54011;50.772;7.730;2022-10-16T14:02:50;2.58;;;0.50;;
67092;SDS011;54011;50.772;7.730;2022-10-16T14:05:26;2.90;;;0.70;;
67092;SDS011;54011;50.772;7.730;2022-10-16T14:07:51;2.28;;;0.60;;
67092;SDS011;54011;50.772;7.730;2022-10-16T14:10:26;1.65;;;0.60;;
67092;SDS011;54011;50.772;7.730;2022-10-16T14:13:05;2.67;;;0.70;;
67092;SDS011;54011;50.772;7.730;2022-10-16T14:15:32;3.70;;;0.80;;
67092;SDS011;54011;50.772;7.730;2022-10-16T14:18:00;5.38;;;0.90;;
67092;SDS011;54011;50.772;7.730;2022-10-16T14:20:26;1.50;;;0.50;;
67092;SDS011;54011;50.772;7.730;2022-10-16T14:23:37;1.30;;;0.63;;
67092;SDS011;54011;50.772;7.730;2022-10-16T14:25:43;5.85;;;0.70;;
67092;SDS011;54011;50.772;7.730;2022-10-16T14:28:21;1.90;;;0.60;;
67092;SDS011;54011;50.772;7.730;2022-10-16T14:30:51;2.92;;;0.73;;
67092;SDS011;54011;50.772;7.730;2022-10-16T14:33:24;3.75;;;0.60;;
67092;SDS011;54011;50.772;7.730;2022-10-16T14:36:06;2.22;;;0.60;;
67092;SDS011;54011;50.772;7.730;2022-10-16T14:38:39;0.82;;;0.43;;
67092;SDS011;54011;50.772;7.730;2022-10-16T14:41:07;0.75;;;0.50;;
67092;SDS011;54011;50.772;7.730;2022-10-16T14:43:34;3.03;;;0.63;;
67092;SDS011;54011;50.772;7.730;2022-10-16T14:46:18;2.50;;;0.60;;
67092;SDS011;54011;50.772;7.730;2022-10-16T14:48:46;1.25;;;0.55;;
67092;SDS011;54011;50.772;7.730;2022-10-16T14:51:14;1.30;;;0.50;;
67092;SDS011;54011;50.772;7.730;2022-10-16T14:53:40;2.28;;;0.60;;
67092;SDS011;54011;50.772;7.730;2022-10-16T14:56:14;1.58;;;0.60;;
67092;SDS011;54011;50.772;7.730;2022-10-16T14:58:45;1.58;;;0.60;;
67092;SDS011;54011;50.772;7.730;2022-10-16T15:01:11;3.28;;;0.60;;
67092;SDS011;54011;50.772;7.730;2022-10-16T15:03:37;0.82;;;0.40;;
67092;SDS011;54011;50.772;7.730;2022-10-16T15:06:03;1.85;;;0.52;;
67092;SDS011;54011;50.772;7.730;2022-10-16T15:08:34;2.17;;;0.50;;
67092;SDS011;54011;50.772;7.730;2022-10-16T15:11:00;1.50;;;0.55;;
67092;SDS011;54011;50.772;7.730;2022-10-16T15:13:25;2.15;;;0.63;;
67092;SDS011;54011;50.772;7.730;2022-10-16T15:15:51;1.85;;;0.57;;
67092;SDS011;54011;50.772;7.730;2022-10-16T15:18:18;4.10;;;1.13;;
67092;SDS011;54011;50.772;7.730;2022-10-16T15:20:50;1.55;;;0.60;;
67092;SDS011;54011;50.772;7.730;2022-10-16T15:23:17;1.58;;;0.60;;
67092;SDS011;54011;50.772;7.730;2022-10-16T15:28:11;5.53;;;2.75;;
67092;SDS011;54011;50.772;7.730;2022-10-16T15:30:37;10.70;;;6.95;;
67092;SDS011;54011;50.772;7.730;2022-10-16T15:33:04;4.53;;;1.88;;
67092;SDS011;54011;50.772;7.730;2022-10-16T15:38:00;2.63;;;0.90;;
67092;SDS011;54011;50.772;7.730;2022-10-16T15:40:25;3.03;;;0.73;;
67092;SDS011;54011;50.772;7.730;2022-10-16T15:42:51;1.45;;;0.60;;
67092;SDS011;54011;50.772;7.730;2022-10-16T15:45:16;2.08;;;0.75;;
67092;SDS011;54011;50.772;7.730;2022-10-16T15:47:44;4.40;;;0.88;;
67092;SDS011;54011;50.772;7.730;2022-10-16T15:50:10;3.10;;;0.90;;
67092;SDS011;54011;50.772;7.730;2022-10-16T15:52:38;2.50;;;0.60;;
67092;SDS011;54011;50.772;7.730;2022-10-16T15:55:05;4.15;;;1.10;;
67092;SDS011;54011;50.772;7.730;2022-10-16T15:57:35;3.75;;;1.08;;
67092;SDS011;54011;50.772;7.730;2022-10-16T16:00:07;3.40;;;1.00;;
67092;SDS011;54011;50.772;7.730;2022-10-16T16:02:40;2.90;;;0.95;;
67092;SDS011;54011;50.772;7.730;2022-10-16T16:05:07;4.75;;;1.48;;
67092;SDS011;54011;50.772;7.730;2022-10-16T16:07:38;6.85;;;1.60;;
67092;SDS011;54011;50.772;7.730;2022-10-16T16:10:06;4.10;;;1.15;;
67092;SDS011;54011;50.772;7.730;2022-10-16T16:12:33;2.45;;;0.90;;
67092;SDS011;54011;50.772;7.730;2022-10-16T16:14:59;3.58;;;0.95;;
67092;SDS011;54011;50.772;7.730;2022-10-16T16:17:24;2.50;;;0.70;;
67092;SDS011;54011;50.772;7.730;2022-10-16T16:19:50;3.90;;;1.00;;
67092;SDS011;54011;50.772;7.730;2022-10-16T16:22:16;3.47;;;0.82;;
67092;SDS011;54011;50.772;7.730;2022-10-16T16:24:42;5.13;;;2.00;;
67092;SDS011;54011;50.772;7.730;2022-10-16T16:27:08;2.92;;;1.20;;
67092;SDS011;54011;50.772;7.730;2022-10-16T16:29:34;4.88;;;1.10;;
67092;SDS011;54011;50.772;7.730;2022-10-16T16:32:00;3.45;;;0.93;;
67092;SDS011;54011;50.772;7.730;2022-10-16T16:34:26;7.18;;;1.02;;
67092;SDS011;54011;50.772;7.730;2022-10-16T16:36:52;6.68;;;0.90;;
67092;SDS011;54011;50.772;7.730;2022-10-16T16:39:19;4.20;;;0.90;;
67092;SDS011;54011;50.772;7.730;2022-10-16T16:41:45;2.85;;;0.90;;
67092;SDS011;54011;50.772;7.730;2022-10-16T16:44:11;2.03;;;0.80;;
67092;SDS011;54011;50.772;7.730;2022-10-16T16:46:37;4.13;;;0.90;;
67092;SDS011;54011;50.772;7.730;2022-10-16T16:49:04;4.00;;;0.82;;
67092;SDS011;54011;50.772;7.730;2022-10-16T16:51:31;3.05;;;0.80;;
67092;SDS011;54011;50.772;7.730;2022-10-16T16:53:57;2.50;;;0.93;;
67092;SDS011;54011;50.772;7.730;2022-10-16T16:56:23;2.13;;;0.80;;
67092;SDS011;54011;50.772;7.730;2022-10-16T16:58:51;3.70;;;1.20;;
67092;SDS011;54011;50.772;7.730;2022-10-16T17:01:18;4.90;;;1.17;;
67092;SDS011;54011;50.772;7.730;2022-10-16T17:03:44;2.45;;;1.13;;
67092;SDS011;54011;50.772;7.730;2022-10-16T17:06:10;3.17;;;1.20;;
67092;SDS011;54011;50.772;7.730;2022-10-16T17:08:37;4.18;;;1.15;;
67092;SDS011;54011;50.772;7.730;2022-10-16T17:11:04;4.85;;;1.13;;
67092;SDS011;54011;50.772;7.730;2022-10-16T17:13:31;4.60;;;1.05;;
67092;SDS011;54011;50.772;7.730;2022-10-16T17:16:04;4.53;;;0.90;;
67092;SDS011;54011;50.772;7.730;2022-10-16T17:18:30;3.72;;;1.20;;
67092;SDS011;54011;50.772;7.730;2022-10-16T17:21:04;6.80;;;1.20;;